createdAt,value
2019-01-29T00:01:40.058Z,1.20
2019-01-29T00:04:09.342Z,1.10
2019-01-29T00:06:38.668Z,1.20
2019-01-29T00:09:10.113Z,1.30
2019-01-29T00:11:39.473Z,1.30
2019-01-29T00:14:08.691Z,1.20
2019-01-29T00:16:38.025Z,1.20
2019-01-29T00:19:07.278Z,1.20
2019-01-29T00:21:36.508Z,1.20
2019-01-29T00:24:06.230Z,1.30
2019-01-29T00:26:35.490Z,1.20
2019-01-29T00:29:04.723Z,1.20
2019-01-29T00:31:33.980Z,1.10
2019-01-29T00:34:03.288Z,1.20
2019-01-29T00:36:32.536Z,1.10
2019-01-29T00:39:01.823Z,1.10
2019-01-29T00:41:31.258Z,1.20
2019-01-29T00:44:00.590Z,1.20
2019-01-29T00:46:29.849Z,1.10
2019-01-29T00:48:59.144Z,1.10
2019-01-29T00:51:28.420Z,1.10
2019-01-29T00:53:58.365Z,1.10
2019-01-29T00:56:27.912Z,1.10
2019-01-29T00:58:57.530Z,1.10
2019-01-29T01:01:26.791Z,1.10
2019-01-29T01:03:56.081Z,1.10
2019-01-29T01:06:25.344Z,1.10
2019-01-29T01:08:54.653Z,1.00
2019-01-29T01:11:24.091Z,1.00
2019-01-29T01:13:53.321Z,0.90
2019-01-29T01:16:22.752Z,0.90
2019-01-29T01:18:52.040Z,0.90
2019-01-29T01:21:21.601Z,0.90
2019-01-29T01:23:50.901Z,0.90
2019-01-29T01:26:20.425Z,1.00
2019-01-29T01:28:49.702Z,1.00
2019-01-29T01:31:19.277Z,1.00
2019-01-29T01:33:48.547Z,1.00
2019-01-29T01:36:17.844Z,1.00
2019-01-29T01:38:47.214Z,1.10
2019-01-29T01:41:16.449Z,1.10
2019-01-29T01:43:46.993Z,1.20
2019-01-29T01:46:16.406Z,1.20
2019-01-29T01:48:45.602Z,1.20
2019-01-29T01:51:14.910Z,1.10
2019-01-29T01:53:44.230Z,1.10
2019-01-29T01:56:13.561Z,1.10
2019-01-29T01:58:42.899Z,1.20
2019-01-29T02:01:12.151Z,1.10
2019-01-29T02:03:41.422Z,1.20
2019-01-29T02:06:10.774Z,1.10
2019-01-29T02:08:40.329Z,1.10
2019-01-29T02:11:09.590Z,1.10
2019-01-29T02:13:39.149Z,1.10
2019-01-29T02:16:08.389Z,1.10
2019-01-29T02:18:37.621Z,1.10
2019-01-29T02:21:09.597Z,1.10
2019-01-29T02:23:38.901Z,1.10
2019-01-29T02:26:08.243Z,1.10
2019-01-29T02:28:37.780Z,1.10
2019-01-29T02:31:07.088Z,1.10
2019-01-29T02:33:36.345Z,1.20
2019-01-29T02:36:05.599Z,1.10
2019-01-29T02:38:34.859Z,1.10
2019-01-29T02:41:04.215Z,1.10
2019-01-29T02:43:33.787Z,1.20
2019-01-29T02:46:03.038Z,1.20
2019-01-29T02:48:32.332Z,1.20
2019-01-29T02:51:01.661Z,1.10
2019-01-29T02:53:31.001Z,1.20
2019-01-29T02:56:00.325Z,1.10
2019-01-29T02:58:29.575Z,1.20
2019-01-29T03:00:58.839Z,1.20
2019-01-29T03:03:28.143Z,1.20
2019-01-29T03:05:57.661Z,1.20
2019-01-29T03:08:26.965Z,1.20
2019-01-29T03:10:56.636Z,1.30
2019-01-29T03:13:26.165Z,1.30
2019-01-29T03:15:55.537Z,1.30
2019-01-29T03:18:24.881Z,1.20
2019-01-29T03:20:54.287Z,1.30
2019-01-29T03:23:27.520Z,1.30
2019-01-29T03:25:54.573Z,1.20
2019-01-29T03:28:23.853Z,1.20
2019-01-29T03:30:53.124Z,1.20
2019-01-29T03:33:22.382Z,1.20
2019-01-29T03:35:51.907Z,1.20
2019-01-29T03:38:21.206Z,1.10
2019-01-29T03:40:50.502Z,1.10
2019-01-29T03:43:19.834Z,1.20
2019-01-29T03:45:49.117Z,1.20
2019-01-29T03:48:19.130Z,1.20
2019-01-29T03:50:48.446Z,1.20
2019-01-29T03:53:17.726Z,1.20
2019-01-29T03:55:47.041Z,1.20
2019-01-29T03:58:16.332Z,1.20
2019-01-29T04:00:45.501Z,1.20
2019-01-29T04:03:14.759Z,1.20
2019-01-29T04:05:45.782Z,1.20
2019-01-29T04:08:15.070Z,1.20
2019-01-29T04:10:44.480Z,1.20
2019-01-29T04:13:14.061Z,1.20
2019-01-29T04:15:43.324Z,1.20
2019-01-29T04:18:12.828Z,1.10
2019-01-29T04:20:42.323Z,1.20
2019-01-29T04:23:14.636Z,1.20
2019-01-29T04:25:44.637Z,1.10
2019-01-29T04:28:14.516Z,1.20
2019-01-29T04:30:44.086Z,1.20
2019-01-29T04:33:13.387Z,1.30
2019-01-29T04:35:42.910Z,1.20
2019-01-29T04:38:12.142Z,1.30
2019-01-29T04:40:41.765Z,1.20
2019-01-29T04:43:13.030Z,1.20
2019-01-29T04:45:42.092Z,1.20
2019-01-29T04:48:11.353Z,1.30
2019-01-29T04:50:40.557Z,1.20
2019-01-29T04:53:09.849Z,1.20
2019-01-29T04:55:39.364Z,1.30
2019-01-29T04:58:08.667Z,1.30
2019-01-29T05:00:37.967Z,1.30
2019-01-29T05:03:07.230Z,1.30
2019-01-29T05:05:36.618Z,1.30
2019-01-29T05:08:05.959Z,1.40
2019-01-29T05:10:35.224Z,1.50
2019-01-29T05:13:04.491Z,1.50
2019-01-29T05:15:33.801Z,1.50
2019-01-29T05:18:03.073Z,1.60
2019-01-29T05:20:32.389Z,1.60
2019-01-29T05:23:01.747Z,1.60
2019-01-29T05:25:34.429Z,1.60
2019-01-29T05:28:03.770Z,1.50
2019-01-29T05:30:33.065Z,1.60
2019-01-29T05:33:02.245Z,1.60
2019-01-29T05:35:31.639Z,1.60
2019-01-29T05:38:00.922Z,1.60
2019-01-29T05:40:30.485Z,1.50
2019-01-29T05:43:00.061Z,1.60
2019-01-29T05:45:29.376Z,1.60
2019-01-29T05:47:58.942Z,1.70
2019-01-29T05:50:28.560Z,1.60
2019-01-29T05:52:57.851Z,1.60
2019-01-29T05:55:27.117Z,1.60
2019-01-29T05:57:56.611Z,1.50
2019-01-29T06:00:32.102Z,1.50
2019-01-29T06:03:04.978Z,1.50
2019-01-29T06:05:34.292Z,1.50
2019-01-29T06:08:05.179Z,1.40
2019-01-29T06:10:34.818Z,1.50
2019-01-29T06:13:04.429Z,1.50
2019-01-29T06:15:33.770Z,1.40
2019-01-29T06:18:03.081Z,1.30
2019-01-29T06:20:33.730Z,1.30
2019-01-29T06:23:03.143Z,1.30
2019-01-29T06:25:32.445Z,1.30
2019-01-29T06:28:03.325Z,1.30
2019-01-29T06:30:32.628Z,1.30
2019-01-29T06:33:01.922Z,1.20
2019-01-29T06:35:31.285Z,1.20
2019-01-29T06:38:00.557Z,1.20
2019-01-29T06:40:30.166Z,1.20
2019-01-29T06:43:01.929Z,1.20
2019-01-29T06:45:34.432Z,1.20
2019-01-29T06:48:03.933Z,1.20
2019-01-29T06:50:33.301Z,1.20
2019-01-29T06:53:02.606Z,1.20
2019-01-29T06:55:32.836Z,1.30
2019-01-29T06:58:02.127Z,1.20
2019-01-29T07:00:32.252Z,1.30
2019-01-29T07:03:02.315Z,1.20
2019-01-29T07:05:31.699Z,1.20
2019-01-29T07:08:00.994Z,1.20
2019-01-29T07:10:30.668Z,1.20
2019-01-29T07:12:59.982Z,1.20
2019-01-29T07:16:06.559Z,1.20
2019-01-29T07:18:45.705Z,1.30
2019-01-29T07:21:15.019Z,1.20
2019-01-29T07:23:44.312Z,1.20
2019-01-29T07:26:13.593Z,1.20
2019-01-29T07:28:42.906Z,1.20
2019-01-29T07:31:12.254Z,1.20
2019-01-29T07:33:42.103Z,1.20
2019-01-29T07:36:11.473Z,1.20
2019-01-29T07:38:40.761Z,1.20
2019-01-29T07:41:10.087Z,1.20
2019-01-29T07:43:39.627Z,1.20
2019-01-29T07:46:09.015Z,1.20
2019-01-29T07:48:38.408Z,1.20
2019-01-29T07:51:08.194Z,1.20
2019-01-29T07:53:37.461Z,1.20
2019-01-29T07:56:07.083Z,1.20
2019-01-29T07:58:36.718Z,1.20
2019-01-29T08:01:05.989Z,1.20
2019-01-29T08:03:38.131Z,1.20
2019-01-29T08:06:07.894Z,1.20
2019-01-29T08:08:37.176Z,1.20
2019-01-29T08:11:06.750Z,1.20
2019-01-29T08:13:36.042Z,1.20
2019-01-29T08:16:05.576Z,1.20
2019-01-29T08:18:35.201Z,1.30
2019-01-29T08:21:04.481Z,1.30
2019-01-29T08:23:33.843Z,1.40
2019-01-29T08:26:03.110Z,1.40
2019-01-29T08:28:32.675Z,1.40
2019-01-29T08:31:01.958Z,1.50
2019-01-29T08:33:31.300Z,1.50
2019-01-29T08:36:00.642Z,1.50
2019-01-29T08:38:29.918Z,1.50
2019-01-29T08:40:59.277Z,1.40
2019-01-29T08:43:28.556Z,1.50
2019-01-29T08:45:59.504Z,1.50
2019-01-29T08:48:28.919Z,1.60
2019-01-29T08:50:58.425Z,1.70
2019-01-29T08:53:27.702Z,1.70
2019-01-29T08:55:56.957Z,1.80
2019-01-29T08:58:27.205Z,1.80
2019-01-29T09:00:56.823Z,1.90
2019-01-29T09:03:26.103Z,1.90
2019-01-29T09:05:55.400Z,2.00
2019-01-29T09:08:24.597Z,2.10
2019-01-29T09:10:54.922Z,2.20
2019-01-29T09:13:24.240Z,2.20
2019-01-29T09:15:53.787Z,2.30
2019-01-29T09:18:23.163Z,2.30
2019-01-29T09:20:52.546Z,2.30
2019-01-29T09:23:21.803Z,2.30
2019-01-29T09:25:51.009Z,2.30
2019-01-29T09:28:20.281Z,2.40
2019-01-29T09:30:49.531Z,2.30
2019-01-29T09:33:19.118Z,2.40
2019-01-29T09:35:48.416Z,2.40
2019-01-29T09:38:17.736Z,2.50
2019-01-29T09:40:47.322Z,2.50
2019-01-29T09:43:16.942Z,2.50
2019-01-29T09:45:46.355Z,2.70
2019-01-29T09:48:16.225Z,2.70
2019-01-29T09:50:48.523Z,2.70
2019-01-29T09:53:18.118Z,2.80
2019-01-29T09:55:47.522Z,2.80
2019-01-29T09:58:16.805Z,2.80
2019-01-29T10:00:46.069Z,2.80
2019-01-29T10:03:15.333Z,2.90
2019-01-29T10:05:44.634Z,3.00
2019-01-29T10:08:16.215Z,3.00
2019-01-29T10:10:45.793Z,3.00
2019-01-29T10:13:15.045Z,3.10
2019-01-29T10:15:44.314Z,3.30
2019-01-29T10:18:13.577Z,3.60
2019-01-29T10:20:43.155Z,3.80
2019-01-29T10:23:12.420Z,3.90
2019-01-29T10:25:41.868Z,3.90
2019-01-29T10:28:11.149Z,3.90
2019-01-29T10:30:40.704Z,4.10
2019-01-29T10:33:09.969Z,4.10
2019-01-29T10:35:39.213Z,4.00
2019-01-29T10:38:08.503Z,4.20
2019-01-29T10:40:37.710Z,4.30
2019-01-29T10:43:07.097Z,4.20
2019-01-29T10:45:36.378Z,4.20
2019-01-29T10:48:06.154Z,4.40
2019-01-29T10:50:35.568Z,4.50
2019-01-29T10:53:05.087Z,4.60
2019-01-29T10:55:34.370Z,4.80
2019-01-29T10:58:03.709Z,4.80
2019-01-29T11:00:35.828Z,4.90
2019-01-29T11:03:05.342Z,5.00
2019-01-29T11:05:34.732Z,5.00
2019-01-29T11:25:33.974Z,5.00
2019-01-29T11:28:03.253Z,5.00
2019-01-29T11:30:32.987Z,4.80
2019-01-29T11:33:02.506Z,4.50
2019-01-29T11:35:31.756Z,4.50
2019-01-29T11:38:01.037Z,4.40
2019-01-29T11:40:30.632Z,4.60
2019-01-29T11:43:00.166Z,4.80
2019-01-29T11:45:31.801Z,4.90
2019-01-29T12:08:48.775Z,5.00
2019-01-29T12:11:18.033Z,5.20
2019-01-29T12:13:47.583Z,5.30
2019-01-29T12:16:17.103Z,5.20
2019-01-29T12:18:46.358Z,5.20
2019-01-29T12:21:15.932Z,5.10
2019-01-29T12:23:45.611Z,4.80
2019-01-29T12:26:14.801Z,4.40
2019-01-29T12:28:44.120Z,4.10
2019-01-29T12:31:13.466Z,3.90
2019-01-29T12:33:45.366Z,3.80
2019-01-29T12:36:14.649Z,3.70
2019-01-29T12:38:43.916Z,3.60
2019-01-29T12:41:13.211Z,3.50
2019-01-29T12:43:42.672Z,3.40
2019-01-29T12:46:12.006Z,3.20
2019-01-29T12:48:41.420Z,3.20
2019-01-29T12:51:32.993Z,3.00
2019-01-29T12:54:02.268Z,3.10
2019-01-29T12:56:31.545Z,3.30
2019-01-29T12:59:00.809Z,3.50
2019-01-29T13:01:30.130Z,3.50
2019-01-29T13:03:59.406Z,3.80
2019-01-29T13:06:28.750Z,4.00
2019-01-29T13:08:58.141Z,4.00
2019-01-29T13:11:27.510Z,3.90
2019-01-29T13:13:56.894Z,3.90
2019-01-29T13:16:26.229Z,3.50
2019-01-29T13:18:55.757Z,3.30
2019-01-29T13:21:24.961Z,3.10
2019-01-29T13:23:54.277Z,3.00
2019-01-29T13:26:29.898Z,2.90
2019-01-29T13:28:54.738Z,2.80
2019-01-29T13:31:24.065Z,3.00
2019-01-29T13:33:53.356Z,3.20
2019-01-29T13:36:22.623Z,3.10
2019-01-29T13:38:52.171Z,2.90
2019-01-29T13:41:21.433Z,2.80
2019-01-29T13:43:50.989Z,2.80
2019-01-29T13:46:20.467Z,2.90
2019-01-29T13:48:49.742Z,2.90
2019-01-29T13:51:19.026Z,2.70
2019-01-29T13:53:48.299Z,2.70
2019-01-29T13:56:18.037Z,2.80
2019-01-29T13:58:47.270Z,2.70
2019-01-29T14:01:16.698Z,2.70
2019-01-29T14:03:45.976Z,2.60
2019-01-29T14:06:15.543Z,2.50
2019-01-29T14:08:44.809Z,2.50
2019-01-29T14:11:14.120Z,2.70
2019-01-29T14:13:43.452Z,2.70
2019-01-29T14:16:14.286Z,2.70
2019-01-29T14:18:43.832Z,2.90
2019-01-29T14:21:13.068Z,2.90
2019-01-29T14:23:42.619Z,2.80
2019-01-29T14:26:12.587Z,2.80
2019-01-29T14:28:41.938Z,2.60
2019-01-29T14:31:11.223Z,2.50
2019-01-29T14:33:40.538Z,2.50
2019-01-29T14:36:16.384Z,2.60
2019-01-29T14:39:12.850Z,2.40
2019-01-29T14:41:42.129Z,2.40
2019-01-29T14:44:20.862Z,2.30
2019-01-29T14:46:50.413Z,2.20
2019-01-29T14:49:19.700Z,2.20
2019-01-29T14:51:49.096Z,2.20
2019-01-29T14:54:18.554Z,2.30
2019-01-29T14:56:56.304Z,2.30
2019-01-29T14:59:19.532Z,2.40
2019-01-29T15:01:48.788Z,2.40
2019-01-29T15:04:18.050Z,2.30
2019-01-29T15:06:47.479Z,2.30
2019-01-29T15:09:17.598Z,2.30
2019-01-29T15:11:47.318Z,2.20
2019-01-29T15:14:16.685Z,2.20
2019-01-29T15:17:03.409Z,2.00
2019-01-29T15:19:33.374Z,2.00
2019-01-29T15:22:02.628Z,2.00
2019-01-29T15:24:31.888Z,1.90
2019-01-29T15:27:05.739Z,1.90
2019-01-29T15:29:32.141Z,1.80
2019-01-29T15:32:01.436Z,1.80
2019-01-29T15:34:30.773Z,1.70
2019-01-29T15:37:00.078Z,1.80
2019-01-29T15:39:29.439Z,1.80
2019-01-29T15:45:30.901Z,1.70
2019-01-29T15:48:00.230Z,1.70
2019-01-29T15:50:31.009Z,1.60
2019-01-29T15:53:00.695Z,1.50
2019-01-29T15:55:30.385Z,1.60
2019-01-29T15:57:59.664Z,1.50
2019-01-29T16:00:29.994Z,1.50
2019-01-29T16:02:59.281Z,1.40
2019-01-29T16:05:28.903Z,1.40
2019-01-29T16:08:03.273Z,1.30
2019-01-29T16:10:39.413Z,1.20
2019-01-29T16:13:05.124Z,1.10
2019-01-29T16:15:34.477Z,1.10
2019-01-29T16:18:04.071Z,1.10
2019-01-29T16:20:33.463Z,1.00
2019-01-29T16:23:02.781Z,0.90
2019-01-29T16:25:32.229Z,1.00
2019-01-29T16:28:01.502Z,1.00
2019-01-29T16:30:30.834Z,1.00
2019-01-29T16:33:00.237Z,1.00
2019-01-29T16:35:31.141Z,0.90
2019-01-29T16:38:00.739Z,0.80
2019-01-29T16:40:30.798Z,0.80
2019-01-29T16:43:00.109Z,0.80
2019-01-29T16:45:32.617Z,0.80
2019-01-29T16:48:09.122Z,0.80
2019-01-29T16:50:42.213Z,0.80
2019-01-29T16:53:12.133Z,0.80
2019-01-29T16:55:41.893Z,0.80
2019-01-29T16:58:11.458Z,0.90
2019-01-29T17:00:41.156Z,0.90
2019-01-29T17:03:10.433Z,0.80
2019-01-29T17:05:40.066Z,0.90
2019-01-29T17:08:09.376Z,0.90
2019-01-29T17:10:38.967Z,0.80
2019-01-29T17:13:08.577Z,0.70
2019-01-29T17:15:37.985Z,0.70
2019-01-29T17:18:07.852Z,0.60
2019-01-29T17:20:41.344Z,0.60
2019-01-29T17:23:10.682Z,0.50
2019-01-29T17:25:43.013Z,0.50
2019-01-29T17:28:12.630Z,0.40
2019-01-29T17:30:43.469Z,0.40
2019-01-29T17:33:15.251Z,0.40
2019-01-29T17:35:44.541Z,0.30
2019-01-29T17:38:13.894Z,0.30
2019-01-29T17:40:44.025Z,0.30
2019-01-29T17:43:13.684Z,0.20
2019-01-29T17:45:45.329Z,0.20
2019-01-29T17:48:14.926Z,0.20
2019-01-29T17:50:45.131Z,0.10
2019-01-29T17:53:14.782Z,0.10
2019-01-29T17:55:44.548Z,0.00
2019-01-29T17:58:14.629Z,0.10
2019-01-29T18:00:50.110Z,0.00
2019-01-29T18:03:19.736Z,0.00
2019-01-29T18:05:49.659Z,0.00
2019-01-29T18:08:19.334Z,0.00
2019-01-29T18:10:50.562Z,0.00
2019-01-29T18:13:20.111Z,0.10
2019-01-29T18:15:49.438Z,0.10
2019-01-29T18:18:18.772Z,0.10
2019-01-29T18:20:48.066Z,0.00
2019-01-29T18:23:17.353Z,0.00
2019-01-29T18:25:46.969Z,0.00
2019-01-29T18:28:16.568Z,0.00
2019-01-29T18:30:45.935Z,0.00
2019-01-29T18:33:15.602Z,0.00
2019-01-29T18:35:45.130Z,0.00
2019-01-29T18:38:14.729Z,0.00
2019-01-29T18:40:50.669Z,0.10
2019-01-29T18:43:20.082Z,0.10
2019-01-29T18:45:49.384Z,0.20
2019-01-29T18:48:18.836Z,0.10
2019-01-29T18:50:49.165Z,0.20
2019-01-29T18:53:18.554Z,0.10
2019-01-29T18:55:48.252Z,0.10
2019-01-29T18:58:17.600Z,0.20
2019-01-29T19:00:54.331Z,0.20
2019-01-29T19:03:18.916Z,0.20
2019-01-29T19:05:48.574Z,0.20
2019-01-29T19:08:18.179Z,0.20
2019-01-29T19:10:47.488Z,0.10
2019-01-29T19:13:17.061Z,0.10
2019-01-29T19:15:46.669Z,0.20
2019-01-29T19:18:15.981Z,0.20
2019-01-29T19:20:45.292Z,0.20
2019-01-29T19:23:17.643Z,0.30
2019-01-29T19:25:55.764Z,0.30
2019-01-29T19:28:25.078Z,0.30
2019-01-29T19:30:57.472Z,0.30
2019-01-29T19:33:27.195Z,0.30
2019-01-29T19:35:56.576Z,0.30
2019-01-29T19:38:26.197Z,0.40
2019-01-29T19:40:55.880Z,0.30
2019-01-29T19:43:28.018Z,0.30
2019-01-29T19:46:05.966Z,0.30
2019-01-29T19:48:32.053Z,0.30
2019-01-29T19:51:01.903Z,0.40
2019-01-29T19:53:31.475Z,0.30
2019-01-29T19:56:03.878Z,0.30
2019-01-29T19:58:33.282Z,0.40
2019-01-29T20:01:02.647Z,0.40
2019-01-29T20:03:37.555Z,0.40
2019-01-29T20:06:06.854Z,0.40
2019-01-29T20:08:36.371Z,0.40
2019-01-29T20:11:08.943Z,0.50
2019-01-29T20:13:50.101Z,0.50
2019-01-29T20:16:19.409Z,0.50
2019-01-29T20:18:49.192Z,0.40
2019-01-29T20:21:19.037Z,0.40
2019-01-29T20:23:55.956Z,0.50
2019-01-29T20:26:25.811Z,0.40
2019-01-29T20:28:55.225Z,0.40
2019-01-29T20:31:24.793Z,0.40
2019-01-29T20:33:54.569Z,0.50
2019-01-29T20:36:23.873Z,0.50
2019-01-29T20:38:53.325Z,0.40
2019-01-29T20:41:22.610Z,0.50
2019-01-29T20:44:16.187Z,0.40
2019-01-29T20:46:59.287Z,0.40
2019-01-29T20:49:43.172Z,0.50
2019-01-29T20:52:12.419Z,0.60
2019-01-29T20:54:52.849Z,0.50
2019-01-29T20:57:24.978Z,0.50
2019-01-29T21:00:07.028Z,0.50
2019-01-29T21:02:45.015Z,0.50
2019-01-29T21:05:17.505Z,0.50
2019-01-29T21:07:56.130Z,0.50
2019-01-29T21:10:37.602Z,0.50
2019-01-29T21:13:10.910Z,0.50
2019-01-29T21:18:35.113Z,0.60
2019-01-29T21:21:10.470Z,0.60
2019-01-29T21:23:43.316Z,0.60
2019-01-29T21:26:12.549Z,0.60
2019-01-29T21:28:43.907Z,0.60
2019-01-29T21:31:13.171Z,0.60
2019-01-29T21:33:42.714Z,0.50
2019-01-29T21:36:11.981Z,0.50
2019-01-29T21:38:41.247Z,0.40
2019-01-29T21:41:10.636Z,0.50
2019-01-29T21:43:40.018Z,0.50
2019-01-29T21:46:09.403Z,0.50
2019-01-29T21:48:39.754Z,0.50
2019-01-29T21:51:09.159Z,0.50
2019-01-29T21:53:38.762Z,0.50
2019-01-29T21:56:08.090Z,0.50
2019-01-29T21:58:37.267Z,0.60
2019-01-29T22:01:06.638Z,0.70
2019-01-29T22:03:35.963Z,0.70
2019-01-29T22:06:05.922Z,0.70
2019-01-29T22:08:35.201Z,0.60
2019-01-29T22:11:04.593Z,0.60
2019-01-29T22:13:33.858Z,0.60
2019-01-29T22:16:03.140Z,0.60
2019-01-29T22:18:32.521Z,0.60
2019-01-29T22:21:02.120Z,0.70
2019-01-29T22:23:31.478Z,0.60
2019-01-29T22:26:00.803Z,0.60
2019-01-29T22:28:30.094Z,0.50
2019-01-29T22:30:59.359Z,0.50
2019-01-29T22:33:28.812Z,0.60
2019-01-29T22:35:57.985Z,0.60
2019-01-29T22:38:27.883Z,0.70
2019-01-29T22:40:57.090Z,0.70
2019-01-29T22:43:26.653Z,0.70
2019-01-29T22:45:56.129Z,0.70
2019-01-29T22:48:25.388Z,0.80
2019-01-29T22:50:54.670Z,0.60
2019-01-29T22:53:24.221Z,0.60
2019-01-29T22:55:56.149Z,0.60
2019-01-29T22:58:25.425Z,0.80
2019-01-29T23:01:21.293Z,0.80
2019-01-29T23:03:54.346Z,0.80
2019-01-29T23:06:44.693Z,0.80
2019-01-29T23:09:14.048Z,0.70
2019-01-29T23:11:43.393Z,0.70
2019-01-29T23:14:12.950Z,0.70
2019-01-29T23:16:42.208Z,0.70
2019-01-29T23:19:18.151Z,0.60
2019-01-29T23:21:47.824Z,0.60
2019-01-29T23:24:17.144Z,0.70
2019-01-29T23:26:46.475Z,0.70
2019-01-29T23:29:17.199Z,0.60
2019-01-29T23:31:46.706Z,0.60
2019-01-29T23:34:16.264Z,0.60
2019-01-29T23:36:45.609Z,0.60
2019-01-29T23:39:17.292Z,0.60
2019-01-29T23:41:46.609Z,0.60
2019-01-29T23:44:16.240Z,0.60
2019-01-29T23:46:47.560Z,0.50
2019-01-29T23:49:17.021Z,0.50
2019-01-29T23:51:46.213Z,0.40
2019-01-29T23:54:15.572Z,0.40
2019-01-29T23:56:44.853Z,0.30
2019-01-29T23:59:14.165Z,0.20
